Terminal Aerodrome Forecast
Issued by NWS

Current Version | Previous Version | Graphics & Text | Print | Product List | Glossary On
Versions: 1 2 3 4 5 6 7 8 9 10 11 12 13 14 15 16 17 18 19
000
FTUS41 KILN 151100
TAFLCK
TAF
KLCK 151121Z 1512/1612 00000KT P6SM SKC
     FM151400 20007KT P6SM SCT150 BKN250
     FM160000 25008KT P6SM VCSH SCT040 OVC070
      TEMPO 1604/1606 30005KT 5SM -SHRA SCT010 BKN030
     FM160600 35005KT P6SM SCT010 OVC030
      TEMPO 1608/1612 BKN008=

USA.gov is the U.S. government's official web portal to all federal, state and local government web resources and services.